Time;durP1;ratioP1;P1;durP2;ratioP2;P2;SDS_P1;SDS_P2;PMS_P1;PMS_P2;Temp;Humidity;BMP_temperature;BMP_pressure;BME280_temperature;BME280_humidity;BME280_pressure;Samples;Min_cycle;Max_cycle;Signal;HPM_P1;HPM_P2
2023/01/10 00:01:43;;;;;;;0.40;0.20;;;;;;;7.75;100.00;99922.78;5028900;28;20564;-55
2023/01/10 00:04:09;;;;;;;0.40;0.30;;;;;;;7.68;100.00;99924.72;5021934;28;20467;-54
2023/01/10 00:06:36;;;;;;;0.30;0.20;;;;;;;7.82;99.52;99937.63;5018983;28;20457;-55
2023/01/10 00:09:02;;;;;;;0.93;0.50;;;;;;;7.78;100.00;99937.72;5022089;28;20452;-55
2023/01/10 00:14:13;;;;;;;0.30;0.20;;;;;;;7.51;99.58;99953.28;5024427;28;20487;-56
2023/01/10 00:16:41;;;;;;;0.30;0.20;;;;;;;7.61;100.00;99951.34;5006242;28;20454;-56
2023/01/10 00:19:09;;;;;;;0.30;0.20;;;;;;;7.52;100.00;99955.03;5024811;28;20451;-55
2023/01/10 00:21:36;;;;;;;0.30;0.20;;;;;;;7.37;100.00;99958.88;5022133;28;20451;-55
2023/01/10 00:24:18;;;;;;;0.30;0.20;;;;;;;7.36;100.00;99966.84;5035208;28;20936;-55
2023/01/10 00:26:53;;;;;;;0.30;0.20;;;;;;;7.30;100.00;99985.50;5021595;28;20447;-55
2023/01/10 00:29:22;;;;;;;0.70;0.20;;;;;;;7.45;100.00;99992.25;5022505;28;20448;-55
2023/01/10 00:31:48;;;;;;;0.30;0.20;;;;;;;7.26;100.00;99997.00;5009447;28;20455;-55
2023/01/10 00:34:15;;;;;;;0.30;0.20;;;;;;;7.10;100.00;99994.66;5021393;28;20497;-55
2023/01/10 00:36:41;;;;;;;0.30;0.20;;;;;;;6.94;100.00;100000.28;5029730;28;20453;-55
2023/01/10 00:39:09;;;;;;;0.30;0.20;;;;;;;7.17;100.00;100003.38;5021439;28;20487;-55
2023/01/10 00:44:21;;;;;;;0.40;0.30;;;;;;;7.04;100.00;100020.34;5028361;28;20441;-54
2023/01/10 00:46:48;;;;;;;0.50;0.50;;;;;;;6.96;100.00;100031.06;5024855;28;20456;-54
2023/01/10 00:49:15;;;;;;;0.60;0.30;;;;;;;6.88;100.00;100032.09;5021427;28;20812;-54
2023/01/10 00:51:42;;;;;;;0.30;0.20;;;;;;;7.02;99.82;100041.53;5024493;28;20448;-54
2023/01/10 00:54:10;;;;;;;0.30;0.20;;;;;;;7.04;100.00;100052.94;5027004;28;20488;-55
2023/01/10 00:56:37;;;;;;;0.40;0.20;;;;;;;6.87;99.64;100062.94;5015025;28;20448;-54
2023/01/10 00:59:05;;;;;;;0.40;0.30;;;;;;;7.01;100.00;100073.28;5014873;28;20448;-54
2023/01/10 01:01:32;;;;;;;1.17;0.40;;;;;;;6.93;100.00;100078.66;5014903;28;20449;-54
2023/01/10 01:03:59;;;;;;;0.30;0.20;;;;;;;6.82;100.00;100083.25;5027779;28;20451;-54
2023/01/10 01:06:25;;;;;;;0.40;0.20;;;;;;;6.65;100.00;100098.50;5014565;28;20881;-54
2023/01/10 01:08:52;;;;;;;0.30;0.20;;;;;;;6.72;100.00;100106.34;5020776;28;21046;-54
2023/01/10 01:11:19;;;;;;;0.30;0.20;;;;;;;6.89;100.00;100121.91;5034297;28;20841;-54
2023/01/10 01:13:45;;;;;;;0.30;0.20;;;;;;;6.75;100.00;100122.13;5002711;28;20498;-54
2023/01/10 01:16:12;;;;;;;0.30;0.20;;;;;;;7.11;100.00;100128.56;5014678;28;20445;-54
2023/01/10 01:18:41;;;;;;;0.30;0.20;;;;;;;6.94;100.00;100124.47;4984467;28;20499;-54
2023/01/10 01:21:07;;;;;;;0.30;0.20;;;;;;;7.40;98.96;100133.34;5026800;28;20451;-54
2023/01/10 01:23:34;;;;;;;0.40;0.20;;;;;;;7.10;99.39;100137.38;5020660;28;21059;-54
2023/01/10 01:26:01;;;;;;;0.60;0.50;;;;;;;7.24;99.02;100131.00;5021501;28;20449;-54
2023/01/10 01:28:27;;;;;;;0.50;0.50;;;;;;;7.09;99.40;100145.34;5027431;28;20477;-54
2023/01/10 01:30:54;;;;;;;0.40;0.30;;;;;;;7.28;99.49;100154.72;5026749;28;20944;-54
2023/01/10 01:33:20;;;;;;;7.33;0.83;;;;;;;7.31;99.20;100164.38;5020343;28;20846;-54
2023/01/10 01:35:49;;;;;;;3.87;0.67;;;;;;;7.55;98.69;100174.50;5033757;28;20451;-54
2023/01/10 01:38:16;;;;;;;0.30;0.20;;;;;;;7.21;98.55;100175.97;5021902;28;20481;-55
2023/01/10 01:40:43;;;;;;;0.30;0.20;;;;;;;7.27;99.81;100173.25;5027382;28;20451;-54
2023/01/10 01:43:25;;;;;;;1.33;0.40;;;;;;;7.30;98.75;100179.34;5000891;28;20484;-54
2023/01/10 01:45:52;;;;;;;0.30;0.20;;;;;;;7.45;98.22;100186.16;5027271;28;20961;-54
2023/01/10 01:48:26;;;;;;;0.50;0.50;;;;;;;7.51;97.77;100177.22;5022243;28;20490;-54
2023/01/10 01:50:53;;;;;;;0.40;0.23;;;;;;;7.38;97.64;100187.13;5020283;28;20447;-54
2023/01/10 01:53:47;;;;;;;0.30;0.20;;;;;;;7.31;98.96;100189.03;5033635;28;20492;-54
2023/01/10 01:56:24;;;;;;;0.90;0.40;;;;;;;7.36;97.83;100194.22;5008178;28;20479;-55
2023/01/10 01:59:00;;;;;;;0.40;0.30;;;;;;;7.47;97.72;100194.91;5018265;28;20468;-55
2023/01/10 02:01:29;;;;;;;7.23;0.40;;;;;;;7.57;97.90;100206.22;5024269;28;20451;-55
2023/01/10 02:04:23;;;;;;;0.30;0.20;;;;;;;7.53;97.13;100204.50;5015931;28;20543;-55
2023/01/10 02:06:52;;;;;;;4.03;0.50;;;;;;;7.56;96.34;100205.34;5021344;28;20456;-55
2023/01/10 02:09:33;;;;;;;5.70;0.30;;;;;;;7.45;96.37;100206.44;5021902;28;20466;-55
2023/01/10 02:12:01;;;;;;;0.30;0.20;;;;;;;7.55;96.01;100206.25;5016152;28;20456;-54
2023/01/10 02:14:28;;;;;;;6.90;0.83;;;;;;;7.33;96.63;100215.44;5023988;28;20494;-55
2023/01/10 02:16:54;;;;;;;0.30;0.20;;;;;;;7.61;97.14;100221.13;5019525;28;20471;-55
2023/01/10 02:19:40;;;;;;;0.37;0.33;;;;;;;7.39;96.70;100215.31;5033060;28;20530;-55
2023/01/10 02:22:44;;;;;;;0.40;0.20;;;;;;;7.64;96.27;100213.13;5033247;28;20528;-55
2023/01/10 02:25:37;;;;;;;0.40;0.30;;;;;;;7.37;97.29;100223.28;5019585;28;20811;-55
2023/01/10 02:28:21;;;;;;;0.30;0.20;;;;;;;7.31;97.49;100215.47;5019369;28;20998;-56
2023/01/10 02:31:18;;;;;;;0.50;0.33;;;;;;;7.28;97.35;100227.88;5021859;28;20472;-56
2023/01/10 02:33:59;;;;;;;49.87;1.53;;;;;;;7.48;97.79;100228.41;5010752;28;20491;-55
2023/01/10 02:36:35;;;;;;;0.40;0.37;;;;;;;7.35;97.93;100237.44;5007123;28;20461;-55
2023/01/10 02:39:11;;;;;;;0.60;0.57;;;;;;;7.42;96.59;100239.09;5017157;28;20463;-55
2023/01/10 02:41:56;;;;;;;0.47;0.30;;;;;;;7.44;97.16;100245.22;5025768;28;20926;-55
2023/01/10 02:44:37;;;;;;;0.40;0.30;;;;;;;7.33;97.37;100249.81;5023087;28;20441;-55
2023/01/10 02:47:06;;;;;;;2.20;1.60;;;;;;;7.51;97.89;100256.56;5004943;28;20883;-54
2023/01/10 02:49:48;;;;;;;1.23;1.13;;;;;;;7.42;98.03;100253.19;5012836;28;20453;-55
2023/01/10 02:52:26;;;;;;;0.40;0.30;;;;;;;7.64;96.66;100244.88;5026254;28;20502;-54
2023/01/10 02:54:59;;;;;;;2.97;0.67;;;;;;;7.75;96.74;100248.22;5012688;28;20857;-55
2023/01/10 02:57:48;;;;;;;0.30;0.30;;;;;;;7.62;97.33;100249.31;5008543;28;20480;-54
2023/01/10 03:00:26;;;;;;;0.30;0.20;;;;;;;7.38;97.70;100250.59;5013561;28;20499;-56
2023/01/10 03:03:01;;;;;;;0.57;0.50;;;;;;;7.59;97.21;100252.03;5023412;28;20444;-55
2023/01/10 03:05:52;;;;;;;14.73;1.10;;;;;;;7.43;97.84;100259.34;5025604;28;20448;-55
2023/01/10 03:08:25;;;;;;;0.30;0.20;;;;;;;7.50;97.75;100258.34;5008327;28;20472;-55
2023/01/10 03:11:01;;;;;;;0.63;0.43;;;;;;;7.45;97.96;100270.78;5024249;28;20459;-55
2023/01/10 03:13:52;;;;;;;4.03;1.03;;;;;;;7.50;97.77;100268.03;5028663;28;20454;-55
2023/01/10 03:16:25;;;;;;;7.20;1.30;;;;;;;7.44;98.02;100276.97;5005981;28;20450;-55
2023/01/10 03:19:02;;;;;;;0.93;0.50;;;;;;;7.30;98.71;100282.47;5031794;28;20468;-55
2023/01/10 03:21:31;;;;;;;0.50;0.40;;;;;;;7.31;99.45;100288.63;5019240;28;20452;-55
2023/01/10 03:24:07;;;;;;;0.30;0.20;;;;;;;7.23;99.69;100291.38;5022718;28;20445;-56
2023/01/10 03:27:03;;;;;;;0.87;0.87;;;;;;;7.42;98.37;100308.72;5025622;28;20440;-55
2023/01/10 03:29:48;;;;;;;0.40;0.30;;;;;;;7.33;98.23;100306.19;4994857;28;20460;-55
2023/01/10 03:32:18;;;;;;;0.50;0.47;;;;;;;7.45;98.69;100320.13;4995042;28;20455;-54
2023/01/10 03:34:45;;;;;;;0.50;0.50;;;;;;;7.42;97.40;100315.78;5025214;28;20593;-54
2023/01/10 03:37:38;;;;;;;0.80;0.80;;;;;;;7.40;97.80;100317.53;5023931;28;20471;-55
2023/01/10 03:40:40;;;;;;;0.40;0.30;;;;;;;7.27;99.12;100329.22;5001379;28;20453;-55
2023/01/10 03:46:15;;;;;;;0.60;0.60;;;;;;;7.25;99.82;100349.50;5014539;28;20460;-54
2023/01/10 03:48:45;;;;;;;1.27;1.17;;;;;;;7.02;99.00;100353.34;5012262;28;20460;-56
2023/01/10 03:51:12;;;;;;;0.97;0.63;;;;;;;6.97;100.00;100359.56;5031332;28;20506;-54
2023/01/10 03:53:39;;;;;;;0.57;0.57;;;;;;;7.00;99.55;100372.78;5018818;28;20471;-55
2023/01/10 03:56:06;;;;;;;0.47;0.43;;;;;;;7.20;99.04;100362.78;5018671;28;20945;-54
2023/01/10 03:58:32;;;;;;;0.53;0.50;;;;;;;6.89;100.00;100378.19;5018393;28;20500;-55
2023/01/10 04:00:59;;;;;;;4.60;0.50;;;;;;;7.09;98.81;100385.84;5012265;28;20461;-54
2023/01/10 04:03:26;;;;;;;13.30;0.50;;;;;;;7.13;98.85;100393.75;5025216;28;20451;-55
2023/01/10 04:05:52;;;;;;;15.90;0.77;;;;;;;7.22;98.95;100411.22;5001297;28;20455;-54
2023/01/10 04:08:18;;;;;;;0.77;0.77;;;;;;;7.31;97.93;100408.47;5013453;28;21044;-55
2023/01/10 04:10:48;;;;;;;0.30;0.20;;;;;;;7.39;98.33;100414.50;5024916;28;20456;-55
2023/01/10 04:13:14;;;;;;;0.40;0.20;;;;;;;7.29;97.96;100425.25;5012696;28;20950;-55
2023/01/10 04:15:41;;;;;;;1.37;0.60;;;;;;;7.07;98.44;100414.94;5024300;28;20530;-55
2023/01/10 04:18:07;;;;;;;0.57;0.57;;;;;;;7.22;100.00;100420.94;5011786;28;20468;-55
2023/01/10 04:20:34;;;;;;;0.90;0.70;;;;;;;7.31;99.38;100423.47;5019874;28;20478;-55
2023/01/10 04:23:00;;;;;;;0.43;0.30;;;;;;;7.14;99.27;100431.63;5004015;28;20460;-55
2023/01/10 04:25:27;;;;;;;13.93;2.90;;;;;;;7.01;100.00;100430.00;5002122;28;20447;-54
2023/01/10 04:27:53;;;;;;;0.50;0.50;;;;;;;6.96;100.00;100434.44;5017187;28;20475;-55
2023/01/10 04:30:19;;;;;;;0.80;0.40;;;;;;;7.10;100.00;100441.31;5021915;28;20456;-54
2023/01/10 04:32:46;;;;;;;0.97;0.97;;;;;;;6.98;100.00;100443.22;5021600;28;20471;-54
2023/01/10 04:35:13;;;;;;;16.03;1.43;;;;;;;6.97;100.00;100458.22;5027156;28;20496;-54
2023/01/10 04:37:40;;;;;;;5.30;1.50;;;;;;;7.24;99.51;100459.66;5027093;28;20482;-55
2023/01/10 04:40:07;;;;;;;0.43;0.40;;;;;;;7.03;99.27;100454.66;5011257;28;20451;-54
2023/01/10 04:42:33;;;;;;;0.40;0.37;;;;;;;6.97;99.75;100465.28;5021642;28;20449;-55
2023/01/10 04:45:00;;;;;;;0.30;0.27;;;;;;;6.97;99.78;100470.56;5034981;28;20458;-55
2023/01/10 04:47:26;;;;;;;3.17;1.10;;;;;;;7.09;99.78;100463.38;5021162;28;20998;-55
2023/01/10 04:49:53;;;;;;;2.10;0.90;;;;;;;6.99;98.68;100469.69;5026832;28;20946;-55
2023/01/10 04:52:19;;;;;;;0.67;0.67;;;;;;;6.95;99.88;100470.56;5027949;28;20971;-55
2023/01/10 04:54:46;;;;;;;0.30;0.20;;;;;;;6.98;99.55;100478.47;5023002;28;20574;-55
2023/01/10 04:57:12;;;;;;;7.13;0.60;;;;;;;6.93;99.90;100477.66;5008345;28;20473;-55
2023/01/10 04:59:39;;;;;;;1.50;1.17;;;;;;;7.14;100.00;100484.47;5025379;28;20481;-55
2023/01/10 05:02:05;;;;;;;4.13;0.50;;;;;;;7.23;97.85;100494.06;5028078;28;20535;-55
2023/01/10 05:04:32;;;;;;;0.40;0.30;;;;;;;7.29;97.95;100489.59;5023617;28;20968;-55
2023/01/10 05:06:58;;;;;;;6.50;1.90;;;;;;;7.28;98.08;100495.78;5015660;28;20479;-55
2023/01/10 05:09:25;;;;;;;7.07;1.60;;;;;;;7.36;96.96;100493.88;5014833;28;20453;-55
2023/01/10 05:11:51;;;;;;;1.93;0.87;;;;;;;7.38;97.04;100491.22;5027935;28;20455;-55
2023/01/10 05:14:18;;;;;;;1.90;0.50;;;;;;;7.25;97.73;100492.25;5023484;28;20491;-54
2023/01/10 05:16:44;;;;;;;13.53;1.77;;;;;;;7.32;98.13;100497.47;5020765;28;20453;-55
2023/01/10 05:19:11;;;;;;;0.40;0.40;;;;;;;7.58;96.50;100498.91;5025141;28;20457;-54
2023/01/10 05:21:37;;;;;;;0.90;0.83;;;;;;;7.50;96.22;100490.19;5027505;28;20953;-55
2023/01/10 05:24:04;;;;;;;0.83;0.83;;;;;;;7.41;96.98;100494.72;5023663;28;20452;-54
2023/01/10 05:26:30;;;;;;;2.43;0.97;;;;;;;7.36;95.60;100488.59;5018035;28;21160;-55
2023/01/10 05:28:57;;;;;;;0.50;0.40;;;;;;;7.33;96.97;100490.41;5023323;28;21050;-54
2023/01/10 05:31:23;;;;;;;5.30;0.60;;;;;;;7.19;97.56;100493.22;5020775;28;20483;-54
2023/01/10 05:33:50;;;;;;;0.30;0.20;;;;;;;7.50;98.31;100492.84;5024695;28;20800;-54
2023/01/10 05:36:18;;;;;;;2.30;1.03;;;;;;;7.37;97.43;100500.06;5027353;28;20523;-54
2023/01/10 05:38:44;;;;;;;0.30;0.20;;;;;;;7.16;96.76;100503.84;5057040;22;20506;-49
2023/01/10 05:41:11;;;;;;;4.83;1.10;;;;;;;7.06;97.55;100503.06;5053260;28;20512;-51
2023/01/10 05:43:40;;;;;;;0.50;0.40;;;;;;;7.01;97.41;100515.44;5053602;28;20473;-48
2023/01/10 05:46:06;;;;;;;0.47;0.40;;;;;;;6.95;97.28;100517.25;5053770;28;20470;-47
2023/01/10 05:48:33;;;;;;;0.37;0.37;;;;;;;6.89;97.72;100528.78;5039378;28;20486;-48
2023/01/10 05:51:00;;;;;;;4.30;1.90;;;;;;;6.93;97.33;100533.13;5033574;28;20543;-48
2023/01/10 05:53:26;;;;;;;3.57;3.37;;;;;;;6.86;98.08;100538.50;5033606;28;20459;-48
2023/01/10 05:55:58;;;;;;;1.00;0.90;;;;;;;6.75;97.75;100546.53;5033299;28;20583;-48
2023/01/10 05:58:26;;;;;;;0.50;0.30;;;;;;;6.79;98.11;100550.88;5033260;28;20468;-48
2023/01/10 06:00:55;;;;;;;5.10;0.30;;;;;;;6.65;99.24;100548.38;5020228;28;20821;-48
2023/01/10 06:03:22;;;;;;;0.60;0.60;;;;;;;6.46;99.97;100549.41;5033411;28;20448;-51
2023/01/10 06:05:48;;;;;;;3.70;0.80;;;;;;;6.42;100.00;100556.47;5033137;28;20539;-50
2023/01/10 06:08:15;;;;;;;2.10;1.13;;;;;;;6.38;100.00;100556.50;5028478;28;20471;-50
2023/01/10 06:10:42;;;;;;;0.40;0.30;;;;;;;6.26;100.00;100562.75;5006997;28;20463;-50
2023/01/10 06:13:10;;;;;;;1.20;0.83;;;;;;;6.14;100.00;100560.19;5033217;28;20886;-50
2023/01/10 06:15:37;;;;;;;33.33;1.90;;;;;;;5.92;100.00;100562.97;5033127;28;20492;-50
2023/01/10 06:18:04;;;;;;;1.70;1.43;;;;;;;5.90;100.00;100564.72;5033074;28;20468;-49
2023/01/10 06:20:31;;;;;;;1.00;0.80;;;;;;;5.85;100.00;100571.75;5033084;28;20459;-52
2023/01/10 06:22:59;;;;;;;9.10;2.70;;;;;;;5.77;100.00;100583.22;5032819;28;20447;-50
2023/01/10 06:25:26;;;;;;;0.30;0.20;;;;;;;5.76;100.00;100590.28;5032803;28;20672;-51
2023/01/10 06:27:52;;;;;;;0.47;0.47;;;;;;;5.65;100.00;100600.84;5032891;28;20467;-50
2023/01/10 06:30:19;;;;;;;5.30;1.70;;;;;;;5.61;100.00;100611.38;5032991;28;20455;-50
2023/01/10 06:32:45;;;;;;;0.37;0.23;;;;;;;5.64;100.00;100607.00;5032732;28;20978;-51
2023/01/10 06:35:12;;;;;;;1.20;0.90;;;;;;;5.57;100.00;100607.03;5032724;28;20488;-50
2023/01/10 06:37:38;;;;;;;0.50;0.50;;;;;;;5.65;100.00;100607.88;5032360;28;20865;-50
2023/01/10 06:40:06;;;;;;;0.50;0.33;;;;;;;5.65;100.00;100597.34;5032543;28;20952;-50
2023/01/10 06:42:32;;;;;;;9.07;1.80;;;;;;;5.71;100.00;100599.06;5032453;28;20501;-50
2023/01/10 06:44:59;;;;;;;0.90;0.80;;;;;;;5.47;100.00;100592.09;5032600;28;20945;-50
2023/01/10 06:47:25;;;;;;;0.90;0.30;;;;;;;5.33;100.00;100595.66;5032505;28;20472;-50
2023/01/10 06:49:52;;;;;;;0.30;0.20;;;;;;;5.57;100.00;100610.53;5032657;28;20452;-50
2023/01/10 06:52:18;;;;;;;0.43;0.43;;;;;;;5.70;100.00;100621.03;5031779;28;20452;-51
2023/01/10 06:54:45;;;;;;;6.63;1.20;;;;;;;5.70;100.00;100632.47;5032550;28;20491;-50
2023/01/10 06:57:11;;;;;;;0.30;0.20;;;;;;;5.75;100.00;100630.69;5032401;28;20475;-49
2023/01/10 06:59:38;;;;;;;0.30;0.20;;;;;;;5.71;100.00;100633.34;5023374;28;20463;-51
2023/01/10 07:02:05;;;;;;;0.40;0.30;;;;;;;5.71;100.00;100635.97;5028355;28;20455;-49
2023/01/10 07:04:32;;;;;;;0.40;0.30;;;;;;;5.79;100.00;100655.31;5032494;28;20452;-50
2023/01/10 07:06:58;;;;;;;1.23;0.43;;;;;;;5.90;100.00;100654.44;5027271;28;20473;-51
2023/01/10 07:09:24;;;;;;;0.30;0.20;;;;;;;5.90;100.00;100657.06;5032265;28;20957;-50
2023/01/10 07:11:51;;;;;;;0.50;0.50;;;;;;;5.97;100.00;100652.63;5032344;28;20447;-50
2023/01/10 07:14:17;;;;;;;7.73;0.60;;;;;;;6.14;100.00;100653.44;5032624;28;20452;-50
2023/01/10 07:16:44;;;;;;;0.40;0.40;;;;;;;6.15;100.00;100641.97;5032078;28;20487;-51
2023/01/10 07:19:12;;;;;;;0.70;0.40;;;;;;;6.23;100.00;100647.22;5032065;28;20479;-51
2023/01/10 07:21:39;;;;;;;6.20;1.83;;;;;;;6.32;100.00;100654.25;5031960;28;20451;-50
2023/01/10 07:24:06;;;;;;;3.97;0.60;;;;;;;6.30;100.00;100655.97;5032381;28;20447;-50
2023/01/10 07:26:33;;;;;;;1.60;0.60;;;;;;;6.42;100.00;100656.78;5032223;28;20455;-50
2023/01/10 07:28:59;;;;;;;2.90;0.93;;;;;;;6.49;100.00;100652.38;5032194;28;20566;-52
2023/01/10 07:31:26;;;;;;;0.60;0.43;;;;;;;6.68;100.00;100659.28;5032141;28;20451;-50
2023/01/10 07:33:52;;;;;;;0.60;0.60;;;;;;;6.63;100.00;100661.09;5032096;28;20483;-51
2023/01/10 07:36:19;;;;;;;0.60;0.60;;;;;;;6.67;100.00;100660.16;5031782;28;20523;-49
2023/01/10 07:38:45;;;;;;;7.37;1.10;;;;;;;6.76;100.00;100668.03;5031808;28;20479;-50
2023/01/10 07:41:12;;;;;;;1.90;0.70;;;;;;;6.81;100.00;100684.72;5031833;28;20454;-50
2023/01/10 07:43:39;;;;;;;1.10;1.00;;;;;;;6.71;100.00;100688.31;5031969;28;21033;-50
2023/01/10 07:46:10;;;;;;;5.30;0.70;;;;;;;6.86;100.00;100690.00;5031909;28;20530;-51
2023/01/10 07:48:40;;;;;;;0.40;0.33;;;;;;;6.89;100.00;100699.66;5031815;28;20555;-51
2023/01/10 07:51:07;;;;;;;0.53;0.53;;;;;;;6.89;100.00;100705.81;5032055;28;20455;-50
2023/01/10 07:53:33;;;;;;;1.03;1.03;;;;;;;6.97;100.00;100700.47;5032002;28;20451;-51
2023/01/10 07:56:02;;;;;;;0.67;0.60;;;;;;;7.01;100.00;100708.38;5031693;28;20491;-50
2023/01/10 07:58:28;;;;;;;1.20;0.60;;;;;;;7.09;100.00;100714.47;5031874;28;20546;-50
2023/01/10 08:00:59;;;;;;;1.00;0.90;;;;;;;7.00;100.00;100718.97;5018669;28;20452;-50
2023/01/10 08:03:26;;;;;;;0.50;0.30;;;;;;;7.09;100.00;100729.44;5032844;28;20518;-50
2023/01/10 08:06:00;;;;;;;1.43;0.60;;;;;;;7.04;99.94;100726.84;5035895;28;20447;-50
2023/01/10 08:08:27;;;;;;;0.50;0.40;;;;;;;7.18;99.95;100728.50;5027850;28;20475;-50
2023/01/10 08:10:54;;;;;;;0.30;0.27;;;;;;;7.08;100.00;100728.56;5035645;28;20456;-50
2023/01/10 08:13:21;;;;;;;0.40;0.23;;;;;;;7.15;100.00;100734.72;5035540;28;20539;-50
2023/01/10 08:15:49;;;;;;;5.50;1.13;;;;;;;7.24;99.92;100733.75;5035345;28;20487;-50
2023/01/10 08:18:16;;;;;;;1.23;1.10;;;;;;;7.17;99.92;100730.28;5035457;28;20503;-50
2023/01/10 08:20:42;;;;;;;0.87;0.70;;;;;;;7.17;99.37;100738.22;5035677;28;20452;-50
2023/01/10 08:23:08;;;;;;;6.70;1.40;;;;;;;7.26;98.43;100731.97;5035406;28;20459;-51
2023/01/10 08:25:35;;;;;;;0.40;0.30;;;;;;;7.27;99.08;100745.19;5035809;28;20440;-50
2023/01/10 08:28:05;;;;;;;0.37;0.30;;;;;;;7.24;97.52;100744.31;5035005;28;20472;-50
2023/01/10 08:30:31;;;;;;;0.37;0.30;;;;;;;7.29;97.12;100743.41;5034825;28;20451;-49
2023/01/10 08:33:01;;;;;;;1.07;0.40;;;;;;;7.32;97.07;100753.06;5035292;28;20836;-51
2023/01/10 08:35:28;;;;;;;0.60;0.30;;;;;;;7.40;97.12;100749.50;5035325;28;20491;-51
2023/01/10 08:37:58;;;;;;;0.30;0.30;;;;;;;7.42;97.95;100753.00;5034891;28;20491;-51
2023/01/10 08:40:25;;;;;;;5.70;0.70;;;;;;;7.46;96.95;100750.31;5035041;28;20994;-50
2023/01/10 08:42:57;;;;;;;0.70;0.67;;;;;;;7.42;96.69;100760.94;5034625;28;20467;-49
2023/01/10 08:45:24;;;;;;;11.97;1.47;;;;;;;7.46;95.49;100755.59;5035160;28;20440;-49
2023/01/10 08:47:50;;;;;;;0.73;0.70;;;;;;;7.50;95.96;100760.84;5034986;28;20471;-48
2023/01/10 08:50:17;;;;;;;11.63;2.20;;;;;;;7.57;96.70;100761.69;5035002;28;20451;-48
2023/01/10 08:52:43;;;;;;;8.10;0.90;;;;;;;7.60;95.54;100759.00;5034708;28;20486;-48
2023/01/10 08:55:10;;;;;;;0.43;0.30;;;;;;;7.72;96.06;100757.13;5017190;28;20494;-48
2023/01/10 08:57:36;;;;;;;0.80;0.70;;;;;;;7.69;95.49;100758.94;5034479;28;20876;-49
2023/01/10 09:00:04;;;;;;;1.73;0.40;;;;;;;7.66;96.62;100761.59;5022431;28;20448;-48
2023/01/10 09:02:31;;;;;;;15.53;1.37;;;;;;;7.75;96.32;100772.09;5034043;28;20451;-49
2023/01/10 09:04:57;;;;;;;8.50;0.70;;;;;;;7.73;95.98;100765.94;5034748;28;20521;-48
2023/01/10 09:07:24;;;;;;;0.53;0.47;;;;;;;7.76;95.64;100767.69;5029673;28;20566;-49
2023/01/10 09:09:50;;;;;;;0.50;0.43;;;;;;;7.88;95.41;100778.16;5034406;28;20452;-48
2023/01/10 09:15:01;;;;;;;0.70;0.70;;;;;;;8.18;93.83;100780.47;5033488;28;20448;-49
2023/01/10 09:17:28;;;;;;;2.30;1.73;;;;;;;8.03;93.88;100791.22;5034399;28;20507;-47
2023/01/10 09:19:55;;;;;;;4.40;1.80;;;;;;;8.11;93.75;100784.09;5034170;28;20796;-49
2023/01/10 09:22:21;;;;;;;1.70;0.83;;;;;;;8.11;94.26;100801.75;5034273;28;20452;-48
2023/01/10 09:24:48;;;;;;;4.83;1.07;;;;;;;8.26;93.49;100799.81;5034034;28;20479;-48
2023/01/10 09:27:14;;;;;;;0.80;0.50;;;;;;;8.49;93.11;100804.88;5034385;28;20518;-48
2023/01/10 09:29:41;;;;;;;0.50;0.50;;;;;;;8.38;91.81;100812.09;5033999;28;20506;-48
2023/01/10 09:32:08;;;;;;;0.53;0.50;;;;;;;8.47;91.90;100816.38;5034084;28;20454;-49
2023/01/10 09:34:35;;;;;;;0.37;0.30;;;;;;;8.63;91.24;100812.66;5034043;28;20462;-48
2023/01/10 09:37:01;;;;;;;0.50;0.50;;;;;;;8.45;91.44;100810.22;5033612;28;20533;-49
2023/01/10 09:39:28;;;;;;;0.70;0.70;;;;;;;8.41;91.34;100819.13;5033824;28;20859;-48
2023/01/10 09:42:27;;;;;;;2.47;1.40;;;;;;;8.53;91.20;100817.22;5034025;28;20470;-48
2023/01/10 09:45:17;;;;;;;10.10;1.70;;;;;;;8.63;91.69;100817.06;5034159;28;20470;-49
2023/01/10 09:47:49;;;;;;;0.70;0.40;;;;;;;8.85;90.60;100823.88;5033866;28;20467;-48
2023/01/10 09:50:19;;;;;;;0.47;0.37;;;;;;;8.78;90.74;100820.44;5033897;28;20594;-48
2023/01/10 09:52:51;;;;;;;20.27;1.37;;;;;;;8.60;91.19;100821.53;5033572;28;20455;-50
2023/01/10 09:55:24;;;;;;;1.13;0.70;;;;;;;8.87;90.64;100822.06;5033710;28;20444;-48
2023/01/10 09:57:54;;;;;;;0.37;0.27;;;;;;;8.83;91.04;100820.38;5033375;28;20506;-48
2023/01/10 10:00:28;;;;;;;5.83;1.23;;;;;;;8.98;90.59;100827.25;5020096;28;20447;-48
2023/01/10 10:02:56;;;;;;;18.13;1.90;;;;;;;8.88;90.11;100834.44;5034029;28;20452;-48
2023/01/10 10:05:25;;;;;;;2.97;1.00;;;;;;;8.72;89.62;100824.94;5033590;28;20509;-49
2023/01/10 10:08:01;;;;;;;5.13;2.10;;;;;;;8.84;88.93;100835.38;5028857;28;20484;-48
2023/01/10 10:10:39;;;;;;;5.57;1.17;;;;;;;8.56;89.40;100840.13;5028820;28;20945;-49
2023/01/10 10:13:25;;;;;;;6.03;1.00;;;;;;;8.44;89.37;100845.56;5026824;28;20940;-48
2023/01/10 10:16:05;;;;;;;6.03;0.90;;;;;;;8.58;89.71;100844.53;5012298;28;20506;-50
2023/01/10 10:19:14;;;;;;;0.53;0.50;;;;;;;8.59;88.97;100834.78;5032822;28;20467;-49
2023/01/10 10:22:21;;;;;;;1.07;1.07;;;;;;;8.36;89.20;100842.13;4996984;28;20444;-48
2023/01/10 10:25:01;;;;;;;0.30;0.20;;;;;;;8.45;89.58;100844.66;5032420;28;20460;-49
2023/01/10 10:28:12;;;;;;;5.53;0.60;;;;;;;8.28;90.65;100844.81;5032061;28;20550;-48
2023/01/10 10:30:53;;;;;;;12.07;3.17;;;;;;;8.36;90.32;100845.66;5011465;28;20471;-48
2023/01/10 10:33:46;;;;;;;2.13;2.03;;;;;;;8.43;90.44;100836.75;5027332;28;20456;-48
2023/01/10 10:36:22;;;;;;;0.93;0.93;;;;;;;8.53;90.10;100848.13;5028965;28;20527;-49
2023/01/10 10:38:50;;;;;;;5.30;1.43;;;;;;;8.25;91.21;100845.75;5032549;28;20478;-47
2023/01/10 10:41:31;;;;;;;4.27;1.07;;;;;;;8.44;90.21;100841.16;5032617;28;20456;-48
2023/01/10 10:44:03;;;;;;;10.50;2.67;;;;;;;8.40;90.08;100841.22;5032615;28;20444;-48
2023/01/10 10:46:30;;;;;;;3.50;1.60;;;;;;;8.28;89.87;100842.19;5007838;28;20475;-48
2023/01/10 10:49:03;;;;;;;1.13;0.90;;;;;;;8.37;90.40;100828.88;5032506;28;20463;-51
2023/01/10 10:51:49;;;;;;;0.60;0.60;;;;;;;8.44;89.44;100817.31;5032527;28;20486;-48
2023/01/10 10:54:16;;;;;;;0.37;0.20;;;;;;;8.49;90.42;100812.81;5032284;28;20454;-49
2023/01/10 10:56:43;;;;;;;0.50;0.50;;;;;;;8.71;89.08;100809.91;5032610;28;20494;-51
2023/01/10 10:59:16;;;;;;;1.90;1.03;;;;;;;8.76;87.48;100800.13;5027329;28;20472;-48
2023/01/10 11:01:46;;;;;;;4.13;0.57;;;;;;;8.84;87.64;100791.19;5025169;28;20443;-49
2023/01/10 11:04:17;;;;;;;0.57;0.57;;;;;;;9.12;86.73;100789.03;5032372;28;20459;-49
2023/01/10 11:06:48;;;;;;;0.63;0.63;;;;;;;9.06;87.12;100790.91;5027374;28;20455;-49
2023/01/10 11:09:39;;;;;;;3.60;0.70;;;;;;;8.87;86.52;100790.25;5032703;28;20467;-49
2023/01/10 11:12:13;;;;;;;4.83;0.93;;;;;;;8.79;85.38;100793.03;5032356;28;20459;-48
2023/01/10 11:14:46;;;;;;;17.53;1.03;;;;;;;9.13;85.04;100795.22;5033258;28;20448;-50
2023/01/10 11:17:22;;;;;;;6.40;1.00;;;;;;;9.22;84.12;100807.47;5007018;28;20582;-51
2023/01/10 11:20:04;;;;;;;0.60;0.30;;;;;;;9.24;85.02;100805.66;5032079;28;20967;-51
2023/01/10 11:22:42;;;;;;;0.50;0.40;;;;;;;9.34;85.48;100807.28;5032278;28;20459;-49
2023/01/10 11:25:20;;;;;;;9.20;1.10;;;;;;;9.43;85.38;100815.09;5032075;28;20983;-49
2023/01/10 11:27:52;;;;;;;4.63;1.03;;;;;;;9.50;85.81;100817.63;5032180;28;20463;-49
2023/01/10 11:30:24;;;;;;;8.70;1.53;;;;;;;9.46;86.37;100815.94;5032104;28;20968;-49
2023/01/10 11:33:15;;;;;;;1.37;1.00;;;;;;;9.46;87.89;100812.41;5031965;28;20455;-49
2023/01/10 11:35:55;;;;;;;0.80;0.70;;;;;;;9.52;87.64;100803.47;5031654;28;20453;-50
2023/01/10 11:38:23;;;;;;;5.57;2.10;;;;;;;9.56;87.18;100805.16;5024557;28;20517;-53
2023/01/10 11:40:57;;;;;;;0.50;0.40;;;;;;;9.77;86.22;100800.38;5035919;28;20948;-53
2023/01/10 11:43:37;;;;;;;1.17;0.87;;;;;;;9.71;84.82;100795.16;5035918;28;20485;-53
2023/01/10 11:46:19;;;;;;;0.83;0.83;;;;;;;9.65;84.77;100805.03;5035775;28;20441;-54
2023/01/10 11:49:02;;;;;;;2.40;0.40;;;;;;;9.56;85.22;100797.19;5036134;28;20570;-53
2023/01/10 11:51:39;;;;;;;2.20;0.70;;;;;;;9.51;85.54;100797.28;4998606;28;20990;-53
2023/01/10 11:54:18;;;;;;;8.03;0.60;;;;;;;9.58;85.73;100806.00;5035631;28;20544;-53
2023/01/10 11:56:55;;;;;;;0.60;0.60;;;;;;;9.25;86.34;100804.75;5035580;28;20483;-54
2023/01/10 11:59:22;;;;;;;9.17;1.80;;;;;;;9.53;85.53;100803.44;5003710;28;20502;-52
2023/01/10 12:01:58;;;;;;;1.80;1.43;;;;;;;9.35;87.41;100793.13;5029532;28;20893;-53